Mountain GroveWeather Station
Hourly Leaf Wetness Data

Source: University of Missouri

To the bottom of the page

Year Month Day Hour Leaf Wetness Total
Precipitation
Avg. Temp Avg. Rel.
Humidity
Wind
Speed
CST mV in mm F C % mph
2018 04 08 1:00 260.9 0.0 0.00 29.8 -1.2 49.89 2.9
2018 04 08 2:00 261.0 0.0 0.00 29.1 -1.6 52.36 3.4
2018 04 08 3:00 261.0 0.0 0.00 29.1 -1.6 54.18 3.2
2018 04 08 4:00 261.0 0.0 0.00 28.9 -1.7 55.66 2.7
2018 04 08 5:00 261.2 0.0 0.00 28.6 -1.9 57.83 2.4
2018 04 08 6:00 261.2 0.0 0.00 29.1 -1.6 57.23 2.7
2018 04 08 7:00 261.0 0.0 0.00 30.0 -1.1 55.49 4.4
2018 04 08 8:00 260.9 0.0 0.00 32.0 0.0 51.75 7.3
2018 04 08 9:00 260.9 0.0 0.00 33.1 0.6 48.41 8.8
2018 04 08 10:00 260.8 0.0 0.00 33.3 0.7 48.5 9.1
2018 04 08 11:00 260.8 0.0 0.00 33.4 0.8 48.1 8.4
2018 04 08 12:00 260.8 0.0 0.00 32.0 0.0 59.69 8.0
2018 04 08 13:00 261.0 0.0 0.00 32.0 0.0 63.53 7.6
2018 04 08 14:00 260.9 0.0 0.00 32.9 0.5 62.11 8.6
2018 04 08 15:00 260.8 0.0 0.00 34.6 1.4 53.56 8.9
2018 04 08 16:00 260.8 0.0 0.00 35.8 2.1 47.77 7.7
2018 04 08 17:00 260.8 0.0 0.00 35.8 2.1 46.99 6.5
2018 04 08 18:00 260.8 0.0 0.00 35.8 2.1 47.67 6.9
2018 04 08 19:00 260.8 0.0 0.00 35.8 2.1 47.74 5.4
2018 04 08 20:00 260.8 0.0 0.00 35.6 2.0 49.31 7.4
2018 04 08 21:00 260.9 0.0 0.00 34.9 1.6 56.81 4.9
2018 04 08 22:00 262.0 0.0 0.00 32.6 0.4 75.13 4.3
2018 04 08 23:00 262.2 0.0 0.00 33.0 0.5 73.38 3.2
2018 04 08 24:00 262.2 0.0 0.00 33.2 0.6 71.96 3.3
2018 04 09 1:00 262.2 0.0 0.00 33.2 0.6 70.31 5.6
2018 04 09 2:00 262.7 0.0 0.00 31.7 -0.2 74.3 3.6
2018 04 09 3:00 264.5 0.0 0.00 30.5 -0.9 77.9 1.7
2018 04 09 4:00 266.3 0.0 0.00 29.0 -1.7 81.1 0.7
2018 04 09 5:00 266.3 0.0 0.00 28.1 -2.2 84.3 0.1
2018 04 09 6:00 267.3 0.0 0.00 27.3 -2.6 86.7 0.3
2018 04 09 7:00 266.9 0.0 0.00 29.5 -1.4 86.2 0.4
2018 04 09 8:00 262.8 0.0 0.00 35.2 1.8 74.08 3.0
2018 04 09 9:00 262.1 0.0 0.00 39.5 4.2 64.58 5.6
2018 04 09 10:00 261.9 0.0 0.00 43.7 6.5 56.36 4.9
2018 04 09 11:00 261.1 0.0 0.00 48.8 9.3 51.03 3.8
2018 04 09 12:00 260.2 0.0 0.00 53.6 12.0 46.82 5.5
2018 04 09 13:00 259.8 0.0 0.00 57.0 13.9 44.55 6.2
2018 04 09 14:00 259.5 0.0 0.00 59.3 15.2 38.45 9.5
2018 04 09 15:00 259.5 0.0 0.00 58.9 14.9 37.64 10.4
2018 04 09 16:00 259.5 0.0 0.00 56.5 13.6 41.64 10.1
2018 04 09 17:00 260.2 0.0 0.00 54.2 12.3 44.43 9.5
2018 04 09 18:00 260.4 0.0 0.00 52.1 11.2 47.95 9.9
2018 04 09 19:00 260.8 0.0 0.00 47.9 8.9 56.55 9.5
2018 04 09 20:00 261.2 0.0 0.00 44.4 6.9 63.88 10.4
2018 04 09 21:00 262.1 0.0 0.00 41.3 5.2 72.81 11.0
2018 04 09 22:00 262.7 0.0 0.00 38.1 3.4 79.7 9.7
2018 04 09 23:00 262.8 0.0 0.00 37.1 2.9 80 11.2
2018 04 09 24:00 262.8 0.0 0.00 37.1 2.8 76.93 11.3
2018 04 10 1:00 262.8 0.0 0.00 36.7 2.6 78.3 7.8
2018 04 10 2:00 263.2 0.0 0.00 36.1 2.3 79.17 5.7
2018 04 10 3:00 265.7 0.0 0.00 33.0 0.6 84.7 2.7
2018 04 10 4:00 280.4 0.0 0.00 31.1 -0.5 89.3 1.8
2018 04 10 5:00 270.7 0.0 0.00 32.4 0.2 89 3.1
2018 04 10 6:00 265.2 0.0 0.00 33.6 0.9 89.2 4.6
2018 04 10 7:00 264.4 0.0 0.00 34.7 1.5 88.3 5.4
2018 04 10 8:00 264.7 0.0 0.00 35.4 1.9 87.1 7.1
2018 04 10 9:00 263.5 0.0 0.00 36.1 2.3 79.44 8.4
2018 04 10 10:00 262.4 0.0 0.00 37.9 3.3 68.25 7.9
2018 04 10 11:00 261.6 0.0 0.00 40.7 4.8 59.39 5.5
2018 04 10 12:00 260.8 0.0 0.00 43.2 6.2 55.69 4.6
2018 04 10 13:00 260.3 0.0 0.00 46.7 8.2 49.13 5.9
2018 04 10 14:00 259.8 0.0 0.00 50.1 10.0 44.91 7.1
2018 04 10 15:00 259.6 0.0 0.00 52.3 11.3 41.91 5.5
2018 04 10 16:00 258.9 0.0 0.00 53.9 12.2 39.48 3.4
2018 04 10 17:00 258.8 0.0 0.00 54.8 12.7 38.08 2.5
2018 04 10 18:00 259.6 0.0 0.00 54.5 12.5 38.82 3.1
2018 04 10 19:00 259.9 0.0 0.00 52.8 11.5 41.87 3.5
2018 04 10 20:00 260.7 0.0 0.00 49.7 9.8 46.77 2.8
2018 04 10 21:00 261.1 0.0 0.00 48.6 9.2 47.17 4.2
2018 04 10 22:00 260.8 0.0 0.00 48.7 9.3 47.78 4.8
2018 04 10 23:00 260.6 0.0 0.00 48.7 9.3 47.74 4.6
2018 04 10 24:00 260.7 0.0 0.00 48.7 9.3 47.41 6.0
2018 04 11 1:00 260.8 0.0 0.00 47.0 8.3 49.98 7.7
2018 04 11 2:00 261.3 0.0 0.00 45.1 7.3 54.28 6.7
2018 04 11 3:00 261.3 0.0 0.00 44.5 7.0 56.27 7.2
2018 04 11 4:00 261.3 0.0 0.00 43.8 6.6 59.05 7.7
2018 04 11 5:00 261.3 0.0 0.00 43.3 6.3 61.76 7.2
2018 04 11 6:00 261.9 0.0 0.00 43.1 6.2 64.05 5.9
2018 04 11 7:00 261.8 0.0 0.00 44.0 6.6 64.91 6.9
2018 04 11 8:00 261.3 0.0 0.00 47.7 8.7 60.04 8.6
2018 04 11 9:00 261.1 0.0 0.00 52.2 11.2 52.07 10.7
2018 04 11 10:00 260.6 0.0 0.00 55.7 13.2 47.19 10.6
2018 04 11 11:00 260.3 0.0 0.00 58.9 14.9 42.97 10.9
2018 04 11 12:00 259.8 0.0 0.00 62.9 17.2 37.41 11.4
2018 04 11 13:00 259.4 0.0 0.00 64.8 18.2 35.54 10.9
2018 04 11 14:00 259.4 0.0 0.00 66.9 19.4 34.03 11.2
2018 04 11 15:00 259.1 0.0 0.00 69.4 20.8 30.3 12.0
2018 04 11 16:00 258.8 0.0 0.00 69.7 20.9 29.21 11.4
2018 04 11 17:00 258.7 0.0 0.00 69.0 20.5 29.98 12.2
2018 04 11 18:00 259.3 0.0 0.00 67.6 19.8 32.43 13.1
2018 04 11 19:00 259.4 0.0 0.00 64.9 18.3 36.5 10.8
2018 04 11 20:00 259.5 0.0 0.00 63.4 17.5 36.53 10.7
2018 04 11 21:00 259.5 0.0 0.00 62.6 17.0 35.64 13.2
2018 04 11 22:00 259.5 0.0 0.00 61.6 16.4 37.45 11.3
2018 04 11 23:00 259.5 0.0 0.00 60.4 15.8 38.99 9.3
2018 04 11 24:00 259.6 0.0 0.00 59.1 15.1 41.64 9.4
2018 04 12 1:00 259.6 0.0 0.00 57.5 14.1 45.08 8.8
2018 04 12 2:00 260.2 0.0 0.00 56.2 13.4 48.33 8.0
2018 04 12 3:00 260.4 0.0 0.00 55.8 13.2 49.43 7.1
2018 04 12 4:00 260.4 0.0 0.00 55.8 13.2 50.55 7.7
2018 04 12 5:00 260.4 0.0 0.00 55.6 13.1 52.86 7.4
2018 04 12 6:00 260.9 0.0 0.00 55.6 13.1 55.28 7.6
2018 04 12 7:00 261.1 0.0 0.00 56.3 13.5 57.63 9.0
2018 04 12 8:00 261.0 0.0 0.00 60.7 15.9 54.82 11.6
2018 04 12 9:00 260.9 0.0 0.00 64.1 17.8 52.67 13.0
2018 04 12 10:00 260.8 0.0 0.00 67.2 19.6 49.9 14.3
2018 04 12 11:00 260.7 0.0 0.00 71.6 22.0 45.08 14.1
2018 04 12 12:00 260.0 0.0 0.00 74.0 23.3 41.79 15.8
2018 04 12 13:00 259.8 0.0 0.00 76.0 24.5 38.91 16.4
2018 04 12 14:00 259.4 0.0 0.00 77.9 25.5 38.13 18.7
2018 04 12 15:00 259.4 0.0 0.00 78.3 25.7 35.97 20.7
2018 04 12 16:00 259.3 0.0 0.00 78.0 25.6 34.03 22.7
2018 04 12 17:00 259.3 0.0 0.00 77.1 25.1 33.94 21.6
2018 04 12 18:00 259.3 0.0 0.00 75.7 24.3 34.91 19.6
2018 04 12 19:00 259.3 0.0 0.00 73.6 23.1 35.87 19.4
2018 04 12 20:00 259.3 0.0 0.00 71.5 21.9 37.78 17.7
2018 04 12 21:00 259.4 0.0 0.00 69.9 21.1 41.42 16.2
2018 04 12 22:00 259.4 0.0 0.00 68.8 20.4 44.85 16.1
2018 04 12 23:00 260.0 0.0 0.00 68.2 20.1 48.34 14.5
2018 04 12 24:00 260.1 0.0 0.00 67.0 19.5 51.92 13.1
2018 04 13 1:00 260.6 0.0 0.00 65.6 18.7 56.43 13.3
2018 04 13 2:00 260.8 0.0 0.00 64.6 18.1 61.21 12.3
2018 04 13 3:00 261.4 0.0 0.00 64.2 17.9 63.7 14.0
2018 04 13 4:00 261.6 0.0 0.00 63.7 17.6 63.16 15.4
2018 04 13 5:00 261.6 0.0 0.00 63.1 17.3 62.33 14.4
2018 04 13 6:00 261.6 0.0 0.00 62.5 16.9 62.16 15.9
2018 04 13 7:00 261.6 0.0 0.00 62.5 17.0 65.78 17.2
2018 04 13 8:00 261.8 0.0 0.00 62.6 17.0 71.75 18.0
2018 04 13 9:00 262.3 0.0 0.00 62.7 17.1 75.44 14.1
2018 04 13 10:00 262.5 0.0 0.00 63.0 17.2 76.86 11.0
2018 04 13 11:00 262.4 0.0 0.00 65.6 18.6 74.47 13.6
2018 04 13 12:00 262.0 0.0 0.00 68.8 20.4 70.13 17.6
2018 04 13 13:00 262.1 0.0 0.00 68.6 20.3 72.42 19.5
2018 04 13 14:00 262.1 0.0 0.00 69.6 20.9 71.93 18.1
2018 04 13 15:00 262.1 0.0 0.00 70.9 21.6 70.03 18.7
2018 04 13 16:00 262.1 0.0 0.00 70.8 21.5 69.68 15.6
2018 04 13 17:00 271.0 0.0 0.00 70.3 21.3 72.31 11.2
2018 04 13 18:00 Wet 303.6 0.0 0.51 67.8 19.9 82.4 11.4
2018 04 13 19:00 Wet 414.7 0.6 15.49 64.7 18.2 92.2 16.1
2018 04 13 20:00 Wet 468.5 0.4 10.41 60.2 15.7 95.4 6.2
2018 04 13 21:00 Wet 434.7 0.1 3.56 60.2 15.7 96.4 6.9
2018 04 13 22:00 Wet 440.0 0.2 4.32 59.6 15.4 94.5 8.6
2018 04 13 23:00 Wet 373.4 0.1 3.05 59.0 15.0 93 9.9
2018 04 13 24:00 Wet 291.2 0.0 0.00 58.2 14.6 94 10.9
2018 04 14 1:00 270.6 0.0 0.00 57.9 14.4 93.6 8.8
2018 04 14 2:00 268.1 0.0 0.00 57.5 14.1 95.9 10.1
2018 04 14 3:00 270.1 0.0 0.00 57.3 14.1 95 11.0
2018 04 14 4:00 267.6 0.0 0.00 57.0 13.9 95.3 10.0
2018 04 14 5:00 267.4 0.0 0.00 56.6 13.7 94.4 10.2
2018 04 14 6:00 270.3 0.0 0.00 56.3 13.5 95.3 9.6
2018 04 14 7:00 266.6 0.0 0.00 54.9 12.7 88.2 10.2
2018 04 14 8:00 264.6 0.0 0.00 48.9 9.4 79.14 11.8
2018 04 14 9:00 263.9 0.0 0.00 45.8 7.7 77.44 10.2
2018 04 14 10:00 263.7 0.0 0.00 44.3 6.8 77.45 10.0
2018 04 14 11:00 262.9 0.0 0.00 44.1 6.7 70.09 10.1
2018 04 14 12:00 262.1 0.0 0.00 48.0 8.9 63.39 11.2
2018 04 14 13:00 261.7 0.0 0.00 50.1 10.0 57.52 11.4
2018 04 14 14:00 261.0 0.0 0.00 50.3 10.2 51.13 13.3
2018 04 14 15:00 260.6 0.0 0.00 48.5 9.2 52.12 12.1
2018 04 14 16:00 260.6 0.0 0.00 46.4 8.0 51.45 14.1
2018 04 14 17:00 261.1 0.0 0.00 43.6 6.4 53.33 13.3
2018 04 14 18:00 261.2 0.0 0.00 41.7 5.4 55.67 12.3
2018 04 14 19:00 261.3 0.0 0.00 39.8 4.3 57.12 11.5
2018 04 14 20:00 261.4 0.0 0.00 39.4 4.1 59.45 12.0
2018 04 14 21:00 262.0 0.0 0.00 38.9 3.8 62.39 11.5
2018 04 14 22:00 262.1 0.0 0.00 38.2 3.5 65.14 12.1
2018 04 14 23:00 262.3 0.0 0.00 36.8 2.7 72.86 12.4
2018 04 14 24:00 262.8 0.0 0.00 35.7 2.1 79.18 11.1
2018 04 15 1:00 262.8 0.0 0.00 34.4 1.3 81.3 11.5
2018 04 15 2:00 262.8 0.0 0.00 33.8 1.0 80.7 12.1
2018 04 15 3:00 262.8 0.0 0.00 33.1 0.6 80.4 10.5
2018 04 15 4:00 262.9 0.0 0.00 32.2 0.1 78.5 11.5
2018 04 15 5:00 263.0 0.0 0.00 31.2 -0.5 81.5 11.9
2018 04 15 6:00 272.6 0.0 0.00 30.3 -0.9 84.1 10.5
2018 04 15 7:00 267.7 0.0 0.00 29.5 -1.4 85.3 11.7
2018 04 15 8:00 279.2 0.0 0.00 29.4 -1.5 88.3 11.4
2018 04 15 9:00 277.0 0.0 0.00 29.7 -1.3 83.5 14.0
2018 04 15 10:00 269.1 0.0 0.00 30.0 -1.1 82.5 13.1
2018 04 15 11:00 265.0 0.0 0.00 29.9 -1.2 82.7 14.4
2018 04 15 12:00 263.0 0.0 0.00 31.0 -0.5 77.85 13.7
2018 04 15 13:00 262.4 0.0 0.00 32.6 0.3 71.43 14.6
2018 04 15 14:00 262.3 0.0 0.00 31.6 -0.2 69 14.0
2018 04 15 15:00 262.2 0.0 0.00 31.4 -0.3 68.14 13.7
2018 04 15 16:00 262.2 0.0 0.00 31.5 -0.3 64.53 13.3
2018 04 15 17:00 262.2 0.0 0.00 31.4 -0.3 62.74 13.5
2018 04 15 18:00 262.2 0.0 0.00 30.8 -0.6 62.62 11.8
2018 04 15 19:00 262.3 0.0 0.00 30.5 -0.8 62.83 12.4
2018 04 15 20:00 262.3 0.0 0.00 30.0 -1.1 63.91 11.4
2018 04 15 21:00 262.3 0.0 0.00 29.8 -1.2 63.94 12.0
2018 04 15 22:00 262.3 0.0 0.00 29.4 -1.4 62.84 12.8
2018 04 15 23:00 262.3 0.0 0.00 29.0 -1.7 63.56 11.8
2018 04 15 24:00 262.3 0.0 0.00 28.7 -1.8 63.72 11.0
2018 04 16 1:00 262.3 0.0 0.00 28.3 -2.1 64.63 10.0
2018 04 16 2:00 262.3 0.0 0.00 28.8 -1.8 65.33 10.9
2018 04 16 3:00 262.3 0.0 0.00 29.1 -1.6 65.1 10.5
2018 04 16 4:00 262.3 0.0 0.00 29.3 -1.5 64.69 11.1
2018 04 16 5:00 262.3 0.0 0.00 29.2 -1.6 64.73 11.1
2018 04 16 6:00 262.3 0.0 0.00 29.0 -1.7 65.22 12.1
2018 04 16 7:00 262.3 0.0 0.00 29.1 -1.6 65.86 12.5
CST mV in mm F C % mph
Year Month Day Hour Leaf Wetness Total
Precipitation
Avg. Temp Avg. Rel.
Humidity
Wind
Speed

Back to the top of the page